sensor_id;sensor_type;location;lat;lon;timestamp;P1;durP1;ratioP1;P2;durP2;ratioP2
71046;SDS011;58703;48.978;8.982;2023-09-18T00:00:43;4.05;;;2.58;;
71046;SDS011;58703;48.978;8.982;2023-09-18T00:03:10;5.88;;;2.55;;
71046;SDS011;58703;48.978;8.982;2023-09-18T00:05:36;6.93;;;2.07;;
71046;SDS011;58703;48.978;8.982;2023-09-18T00:08:01;4.28;;;1.92;;
71046;SDS011;58703;48.978;8.982;2023-09-18T00:10:28;4.33;;;2.30;;
71046;SDS011;58703;48.978;8.982;2023-09-18T00:12:57;5.40;;;3.08;;
71046;SDS011;58703;48.978;8.982;2023-09-18T00:15:22;2.97;;;2.60;;
71046;SDS011;58703;48.978;8.982;2023-09-18T00:17:49;4.78;;;2.30;;
71046;SDS011;58703;48.978;8.982;2023-09-18T00:20:14;3.78;;;2.40;;
71046;SDS011;58703;48.978;8.982;2023-09-18T00:22:43;4.78;;;2.58;;
71046;SDS011;58703;48.978;8.982;2023-09-18T00:25:08;5.57;;;2.60;;
71046;SDS011;58703;48.978;8.982;2023-09-18T00:27:34;5.03;;;2.50;;
71046;SDS011;58703;48.978;8.982;2023-09-18T00:30:04;5.45;;;2.60;;
71046;SDS011;58703;48.978;8.982;2023-09-18T00:32:31;5.53;;;2.57;;
71046;SDS011;58703;48.978;8.982;2023-09-18T00:34:57;4.22;;;2.67;;
71046;SDS011;58703;48.978;8.982;2023-09-18T00:37:23;4.30;;;2.63;;
71046;SDS011;58703;48.978;8.982;2023-09-18T00:39:49;11.70;;;3.10;;
71046;SDS011;58703;48.978;8.982;2023-09-18T00:42:15;5.43;;;2.72;;
71046;SDS011;58703;48.978;8.982;2023-09-18T00:44:43;6.75;;;3.55;;
71046;SDS011;58703;48.978;8.982;2023-09-18T00:47:09;6.83;;;2.90;;
71046;SDS011;58703;48.978;8.982;2023-09-18T00:49:36;7.43;;;2.38;;
71046;SDS011;58703;48.978;8.982;2023-09-18T00:52:04;4.65;;;3.17;;
71046;SDS011;58703;48.978;8.982;2023-09-18T00:54:32;9.07;;;3.40;;
71046;SDS011;58703;48.978;8.982;2023-09-18T00:56:59;5.25;;;2.90;;
71046;SDS011;58703;48.978;8.982;2023-09-18T00:59:25;5.13;;;3.13;;
71046;SDS011;58703;48.978;8.982;2023-09-18T01:01:51;6.47;;;3.22;;
71046;SDS011;58703;48.978;8.982;2023-09-18T01:04:18;5.28;;;2.75;;
71046;SDS011;58703;48.978;8.982;2023-09-18T01:06:43;3.90;;;2.67;;
71046;SDS011;58703;48.978;8.982;2023-09-18T01:09:09;4.60;;;3.10;;
71046;SDS011;58703;48.978;8.982;2023-09-18T01:11:41;4.97;;;2.83;;
71046;SDS011;58703;48.978;8.982;2023-09-18T01:14:20;5.78;;;3.08;;
71046;SDS011;58703;48.978;8.982;2023-09-18T01:16:57;5.50;;;2.40;;
71046;SDS011;58703;48.978;8.982;2023-09-18T01:22:05;5.25;;;2.95;;
71046;SDS011;58703;48.978;8.982;2023-09-18T01:24:32;6.77;;;2.70;;
71046;SDS011;58703;48.978;8.982;2023-09-18T01:26:59;5.35;;;2.42;;
71046;SDS011;58703;48.978;8.982;2023-09-18T01:29:24;5.78;;;3.08;;
71046;SDS011;58703;48.978;8.982;2023-09-18T01:31:50;4.40;;;2.83;;
71046;SDS011;58703;48.978;8.982;2023-09-18T01:34:21;6.07;;;2.70;;
71046;SDS011;58703;48.978;8.982;2023-09-18T01:36:50;3.70;;;2.58;;
71046;SDS011;58703;48.978;8.982;2023-09-18T01:39:17;5.90;;;2.50;;
71046;SDS011;58703;48.978;8.982;2023-09-18T01:41:45;4.30;;;2.55;;
71046;SDS011;58703;48.978;8.982;2023-09-18T01:44:11;4.10;;;2.40;;
71046;SDS011;58703;48.978;8.982;2023-09-18T01:46:37;5.47;;;2.92;;
71046;SDS011;58703;48.978;8.982;2023-09-18T01:49:04;3.67;;;2.58;;
71046;SDS011;58703;48.978;8.982;2023-09-18T01:51:29;2.97;;;2.33;;
71046;SDS011;58703;48.978;8.982;2023-09-18T01:53:55;5.22;;;2.35;;
71046;SDS011;58703;48.978;8.982;2023-09-18T01:56:22;3.50;;;2.58;;
71046;SDS011;58703;48.978;8.982;2023-09-18T01:58:49;4.07;;;2.70;;
71046;SDS011;58703;48.978;8.982;2023-09-18T02:01:15;5.55;;;2.75;;
71046;SDS011;58703;48.978;8.982;2023-09-18T02:03:40;5.38;;;2.83;;
71046;SDS011;58703;48.978;8.982;2023-09-18T02:06:07;9.13;;;2.70;;
71046;SDS011;58703;48.978;8.982;2023-09-18T02:08:34;3.00;;;2.40;;
71046;SDS011;58703;48.978;8.982;2023-09-18T02:11:00;2.55;;;2.33;;
71046;SDS011;58703;48.978;8.982;2023-09-18T02:13:26;6.78;;;2.50;;
71046;SDS011;58703;48.978;8.982;2023-09-18T02:15:52;3.17;;;2.10;;
71046;SDS011;58703;48.978;8.982;2023-09-18T02:18:18;4.82;;;2.25;;
71046;SDS011;58703;48.978;8.982;2023-09-18T02:20:44;6.25;;;2.90;;
71046;SDS011;58703;48.978;8.982;2023-09-18T02:23:13;4.43;;;2.40;;
71046;SDS011;58703;48.978;8.982;2023-09-18T02:25:38;2.88;;;2.42;;
71046;SDS011;58703;48.978;8.982;2023-09-18T02:28:05;3.10;;;2.38;;
71046;SDS011;58703;48.978;8.982;2023-09-18T02:30:32;6.75;;;1.80;;
71046;SDS011;58703;48.978;8.982;2023-09-18T02:32:57;7.03;;;2.00;;
71046;SDS011;58703;48.978;8.982;2023-09-18T02:35:23;5.53;;;1.70;;
71046;SDS011;58703;48.978;8.982;2023-09-18T02:37:49;4.70;;;1.77;;
71046;SDS011;58703;48.978;8.982;2023-09-18T02:40:14;5.20;;;1.60;;
71046;SDS011;58703;48.978;8.982;2023-09-18T02:42:40;4.72;;;1.95;;
71046;SDS011;58703;48.978;8.982;2023-09-18T02:45:06;3.13;;;1.70;;
71046;SDS011;58703;48.978;8.982;2023-09-18T02:47:33;3.37;;;2.00;;
71046;SDS011;58703;48.978;8.982;2023-09-18T02:49:59;5.55;;;1.80;;
71046;SDS011;58703;48.978;8.982;2023-09-18T02:52:25;4.03;;;2.00;;
71046;SDS011;58703;48.978;8.982;2023-09-18T02:54:50;3.40;;;2.00;;
71046;SDS011;58703;48.978;8.982;2023-09-18T02:57:16;5.63;;;2.33;;
71046;SDS011;58703;48.978;8.982;2023-09-18T02:59:42;4.95;;;2.47;;
71046;SDS011;58703;48.978;8.982;2023-09-18T03:02:07;3.83;;;2.20;;
71046;SDS011;58703;48.978;8.982;2023-09-18T03:04:33;5.05;;;2.35;;
71046;SDS011;58703;48.978;8.982;2023-09-18T03:06:58;8.20;;;2.57;;
71046;SDS011;58703;48.978;8.982;2023-09-18T03:09:24;6.67;;;2.27;;
71046;SDS011;58703;48.978;8.982;2023-09-18T03:11:50;3.47;;;2.35;;
71046;SDS011;58703;48.978;8.982;2023-09-18T03:14:15;4.60;;;2.10;;
71046;SDS011;58703;48.978;8.982;2023-09-18T03:16:41;6.13;;;2.37;;
71046;SDS011;58703;48.978;8.982;2023-09-18T03:19:06;3.17;;;2.28;;
71046;SDS011;58703;48.978;8.982;2023-09-18T03:21:32;5.33;;;2.47;;
71046;SDS011;58703;48.978;8.982;2023-09-18T03:24:00;2.60;;;2.22;;
71046;SDS011;58703;48.978;8.982;2023-09-18T03:26:26;3.88;;;2.22;;
71046;SDS011;58703;48.978;8.982;2023-09-18T03:28:52;2.40;;;2.20;;
71046;SDS011;58703;48.978;8.982;2023-09-18T03:31:17;4.22;;;2.40;;
71046;SDS011;58703;48.978;8.982;2023-09-18T03:33:43;4.27;;;2.70;;
71046;SDS011;58703;48.978;8.982;2023-09-18T03:36:09;4.03;;;2.20;;
71046;SDS011;58703;48.978;8.982;2023-09-18T03:38:36;4.10;;;1.90;;
71046;SDS011;58703;48.978;8.982;2023-09-18T03:41:02;4.50;;;2.08;;
71046;SDS011;58703;48.978;8.982;2023-09-18T03:43:28;9.17;;;2.47;;
71046;SDS011;58703;48.978;8.982;2023-09-18T03:45:53;5.75;;;2.47;;
71046;SDS011;58703;48.978;8.982;2023-09-18T03:48:19;2.60;;;1.70;;
71046;SDS011;58703;48.978;8.982;2023-09-18T03:50:47;2.30;;;2.00;;
71046;SDS011;58703;48.978;8.982;2023-09-18T03:53:12;4.43;;;2.00;;
71046;SDS011;58703;48.978;8.982;2023-09-18T03:55:38;4.80;;;2.13;;
71046;SDS011;58703;48.978;8.982;2023-09-18T03:58:04;2.90;;;2.40;;
71046;SDS011;58703;48.978;8.982;2023-09-18T04:00:30;3.37;;;2.03;;
71046;SDS011;58703;48.978;8.982;2023-09-18T04:02:56;6.53;;;2.03;;
71046;SDS011;58703;48.978;8.982;2023-09-18T04:05:21;7.73;;;2.27;;
71046;SDS011;58703;48.978;8.982;2023-09-18T04:07:47;6.90;;;2.10;;
71046;SDS011;58703;48.978;8.982;2023-09-18T04:10:13;11.37;;;2.50;;
71046;SDS011;58703;48.978;8.982;2023-09-18T04:12:48;3.80;;;1.73;;
71046;SDS011;58703;48.978;8.982;2023-09-18T04:15:16;7.32;;;1.95;;
71046;SDS011;58703;48.978;8.982;2023-09-18T04:17:43;10.68;;;2.30;;
71046;SDS011;58703;48.978;8.982;2023-09-18T04:20:10;10.35;;;2.33;;
71046;SDS011;58703;48.978;8.982;2023-09-18T04:22:36;12.00;;;2.40;;
71046;SDS011;58703;48.978;8.982;2023-09-18T04:25:02;9.90;;;2.20;;
71046;SDS011;58703;48.978;8.982;2023-09-18T04:27:30;12.90;;;2.38;;
71046;SDS011;58703;48.978;8.982;2023-09-18T04:29:56;6.23;;;1.93;;
71046;SDS011;58703;48.978;8.982;2023-09-18T04:32:23;8.02;;;1.60;;
71046;SDS011;58703;48.978;8.982;2023-09-18T04:34:49;6.85;;;2.13;;
71046;SDS011;58703;48.978;8.982;2023-09-18T04:37:14;10.07;;;2.20;;
71046;SDS011;58703;48.978;8.982;2023-09-18T04:39:40;13.02;;;2.15;;
71046;SDS011;58703;48.978;8.982;2023-09-18T04:42:06;8.90;;;2.00;;
71046;SDS011;58703;48.978;8.982;2023-09-18T04:44:32;10.35;;;2.10;;
71046;SDS011;58703;48.978;8.982;2023-09-18T04:46:57;6.33;;;2.00;;
71046;SDS011;58703;48.978;8.982;2023-09-18T04:49:23;8.63;;;2.38;;
71046;SDS011;58703;48.978;8.982;2023-09-18T04:51:49;9.48;;;2.20;;
71046;SDS011;58703;48.978;8.982;2023-09-18T04:54:15;5.40;;;2.03;;
71046;SDS011;58703;48.978;8.982;2023-09-18T04:56:41;8.40;;;2.17;;
71046;SDS011;58703;48.978;8.982;2023-09-18T04:59:06;2.97;;;1.60;;
71046;SDS011;58703;48.978;8.982;2023-09-18T05:01:32;6.20;;;1.85;;
71046;SDS011;58703;48.978;8.982;2023-09-18T05:03:58;6.37;;;1.77;;
71046;SDS011;58703;48.978;8.982;2023-09-18T05:06:23;7.78;;;2.20;;
71046;SDS011;58703;48.978;8.982;2023-09-18T05:08:49;7.50;;;3.30;;
71046;SDS011;58703;48.978;8.982;2023-09-18T05:11:15;7.83;;;2.50;;
71046;SDS011;58703;48.978;8.982;2023-09-18T05:13:42;11.15;;;2.10;;
71046;SDS011;58703;48.978;8.982;2023-09-18T05:16:07;8.70;;;2.67;;
71046;SDS011;58703;48.978;8.982;2023-09-18T05:18:33;4.72;;;1.88;;
71046;SDS011;58703;48.978;8.982;2023-09-18T05:20:58;5.90;;;1.97;;
71046;SDS011;58703;48.978;8.982;2023-09-18T05:23:24;6.75;;;2.28;;
71046;SDS011;58703;48.978;8.982;2023-09-18T05:25:50;6.60;;;2.20;;
71046;SDS011;58703;48.978;8.982;2023-09-18T05:28:16;5.70;;;2.30;;
71046;SDS011;58703;48.978;8.982;2023-09-18T05:30:42;5.73;;;2.17;;
71046;SDS011;58703;48.978;8.982;2023-09-18T05:33:07;9.05;;;2.30;;
71046;SDS011;58703;48.978;8.982;2023-09-18T05:35:35;8.63;;;2.85;;
71046;SDS011;58703;48.978;8.982;2023-09-18T05:38:02;8.63;;;3.05;;
71046;SDS011;58703;48.978;8.982;2023-09-18T05:40:28;6.77;;;2.77;;
71046;SDS011;58703;48.978;8.982;2023-09-18T05:42:55;11.25;;;3.40;;
71046;SDS011;58703;48.978;8.982;2023-09-18T05:45:21;8.77;;;2.58;;
71046;SDS011;58703;48.978;8.982;2023-09-18T05:47:48;11.98;;;3.10;;
71046;SDS011;58703;48.978;8.982;2023-09-18T05:50:14;8.43;;;2.88;;
71046;SDS011;58703;48.978;8.982;2023-09-18T05:52:41;6.03;;;2.70;;
71046;SDS011;58703;48.978;8.982;2023-09-18T05:55:08;6.43;;;2.75;;
71046;SDS011;58703;48.978;8.982;2023-09-18T05:57:34;11.25;;;3.03;;
71046;SDS011;58703;48.978;8.982;2023-09-18T06:00:01;9.93;;;2.38;;
71046;SDS011;58703;48.978;8.982;2023-09-18T06:02:27;11.30;;;2.88;;
71046;SDS011;58703;48.978;8.982;2023-09-18T06:04:57;8.50;;;2.97;;
71046;SDS011;58703;48.978;8.982;2023-09-18T06:07:25;5.97;;;2.88;;
71046;SDS011;58703;48.978;8.982;2023-09-18T06:09:55;6.68;;;2.63;;
71046;SDS011;58703;48.978;8.982;2023-09-18T06:12:22;5.87;;;2.40;;
71046;SDS011;58703;48.978;8.982;2023-09-18T06:14:49;8.93;;;2.72;;
71046;SDS011;58703;48.978;8.982;2023-09-18T06:17:15;9.30;;;2.50;;
71046;SDS011;58703;48.978;8.982;2023-09-18T06:19:41;6.93;;;2.42;;
71046;SDS011;58703;48.978;8.982;2023-09-18T06:22:07;9.68;;;2.33;;
71046;SDS011;58703;48.978;8.982;2023-09-18T06:24:36;7.43;;;2.40;;
71046;SDS011;58703;48.978;8.982;2023-09-18T06:27:02;7.38;;;2.60;;
71046;SDS011;58703;48.978;8.982;2023-09-18T06:29:34;8.25;;;2.22;;
71046;SDS011;58703;48.978;8.982;2023-09-18T06:32:00;7.93;;;2.55;;
71046;SDS011;58703;48.978;8.982;2023-09-18T06:34:26;7.03;;;2.30;;
71046;SDS011;58703;48.978;8.982;2023-09-18T06:36:53;8.77;;;2.35;;
71046;SDS011;58703;48.978;8.982;2023-09-18T06:39:19;5.88;;;2.33;;
71046;SDS011;58703;48.978;8.982;2023-09-18T06:41:45;10.40;;;2.37;;
71046;SDS011;58703;48.978;8.982;2023-09-18T06:44:11;8.95;;;2.40;;
71046;SDS011;58703;48.978;8.982;2023-09-18T06:46:36;8.13;;;2.13;;
71046;SDS011;58703;48.978;8.982;2023-09-18T06:49:02;7.97;;;2.13;;
71046;SDS011;58703;48.978;8.982;2023-09-18T06:51:29;6.30;;;2.03;;
71046;SDS011;58703;48.978;8.982;2023-09-18T06:53:55;15.60;;;2.60;;
71046;SDS011;58703;48.978;8.982;2023-09-18T06:56:23;6.65;;;1.88;;
71046;SDS011;58703;48.978;8.982;2023-09-18T06:58:49;9.98;;;2.47;;
71046;SDS011;58703;48.978;8.982;2023-09-18T07:01:17;4.05;;;1.80;;
71046;SDS011;58703;48.978;8.982;2023-09-18T07:03:45;7.03;;;1.93;;
71046;SDS011;58703;48.978;8.982;2023-09-18T07:06:13;8.52;;;2.35;;
71046;SDS011;58703;48.978;8.982;2023-09-18T07:08:44;6.05;;;1.70;;
71046;SDS011;58703;48.978;8.982;2023-09-18T07:11:10;9.82;;;1.92;;
71046;SDS011;58703;48.978;8.982;2023-09-18T07:13:37;6.13;;;1.77;;
71046;SDS011;58703;48.978;8.982;2023-09-18T07:16:05;5.03;;;1.50;;
71046;SDS011;58703;48.978;8.982;2023-09-18T07:18:31;9.00;;;1.98;;
71046;SDS011;58703;48.978;8.982;2023-09-18T07:20:57;5.70;;;1.77;;
71046;SDS011;58703;48.978;8.982;2023-09-18T07:23:22;6.57;;;1.60;;
71046;SDS011;58703;48.978;8.982;2023-09-18T07:25:50;6.32;;;1.77;;
71046;SDS011;58703;48.978;8.982;2023-09-18T07:28:15;6.70;;;1.80;;
71046;SDS011;58703;48.978;8.982;2023-09-18T07:30:43;8.53;;;2.40;;
71046;SDS011;58703;48.978;8.982;2023-09-18T07:33:12;7.53;;;2.40;;
71046;SDS011;58703;48.978;8.982;2023-09-18T07:35:41;7.90;;;2.30;;
71046;SDS011;58703;48.978;8.982;2023-09-18T07:38:07;8.00;;;2.35;;
71046;SDS011;58703;48.978;8.982;2023-09-18T07:40:33;11.03;;;2.10;;
71046;SDS011;58703;48.978;8.982;2023-09-18T07:42:59;6.43;;;1.88;;
71046;SDS011;58703;48.978;8.982;2023-09-18T07:45:24;10.77;;;2.20;;
71046;SDS011;58703;48.978;8.982;2023-09-18T07:47:50;6.78;;;2.42;;
71046;SDS011;58703;48.978;8.982;2023-09-18T07:50:16;7.73;;;2.60;;
71046;SDS011;58703;48.978;8.982;2023-09-18T07:52:42;9.10;;;2.20;;
71046;SDS011;58703;48.978;8.982;2023-09-18T07:55:08;8.38;;;2.13;;
71046;SDS011;58703;48.978;8.982;2023-09-18T07:57:35;8.40;;;2.05;;
71046;SDS011;58703;48.978;8.982;2023-09-18T08:00:01;5.97;;;1.90;;
71046;SDS011;58703;48.978;8.982;2023-09-18T08:02:37;3.83;;;1.63;;
71046;SDS011;58703;48.978;8.982;2023-09-18T08:05:04;11.10;;;1.98;;
71046;SDS011;58703;48.978;8.982;2023-09-18T08:07:30;9.18;;;2.10;;
71046;SDS011;58703;48.978;8.982;2023-09-18T08:09:57;5.73;;;2.10;;
71046;SDS011;58703;48.978;8.982;2023-09-18T08:12:23;2.88;;;1.70;;
71046;SDS011;58703;48.978;8.982;2023-09-18T08:14:49;3.85;;;1.58;;
71046;SDS011;58703;48.978;8.982;2023-09-18T08:17:15;4.63;;;1.17;;
71046;SDS011;58703;48.978;8.982;2023-09-18T08:19:41;5.10;;;1.73;;
71046;SDS011;58703;48.978;8.982;2023-09-18T08:22:09;6.40;;;1.25;;
71046;SDS011;58703;48.978;8.982;2023-09-18T08:24:37;5.30;;;1.60;;
71046;SDS011;58703;48.978;8.982;2023-09-18T08:27:02;3.50;;;0.87;;
71046;SDS011;58703;48.978;8.982;2023-09-18T08:29:28;3.60;;;0.70;;
71046;SDS011;58703;48.978;8.982;2023-09-18T08:31:54;7.07;;;0.77;;
71046;SDS011;58703;48.978;8.982;2023-09-18T08:34:20;2.47;;;1.10;;
71046;SDS011;58703;48.978;8.982;2023-09-18T08:36:45;5.40;;;1.13;;
71046;SDS011;58703;48.978;8.982;2023-09-18T08:39:11;3.10;;;1.00;;
71046;SDS011;58703;48.978;8.982;2023-09-18T08:41:38;3.03;;;0.73;;
71046;SDS011;58703;48.978;8.982;2023-09-18T08:44:07;3.15;;;0.98;;
71046;SDS011;58703;48.978;8.982;2023-09-18T08:46:34;2.25;;;1.02;;
71046;SDS011;58703;48.978;8.982;2023-09-18T08:49:00;2.97;;;0.70;;
71046;SDS011;58703;48.978;8.982;2023-09-18T08:51:26;4.07;;;1.30;;
71046;SDS011;58703;48.978;8.982;2023-09-18T08:53:52;4.20;;;1.63;;
71046;SDS011;58703;48.978;8.982;2023-09-18T08:56:19;5.20;;;1.88;;
71046;SDS011;58703;48.978;8.982;2023-09-18T08:58:46;10.60;;;1.70;;
71046;SDS011;58703;48.978;8.982;2023-09-18T09:01:12;3.08;;;1.23;;
71046;SDS011;58703;48.978;8.982;2023-09-18T09:03:39;5.38;;;1.20;;
71046;SDS011;58703;48.978;8.982;2023-09-18T09:06:06;5.78;;;1.50;;
71046;SDS011;58703;48.978;8.982;2023-09-18T09:08:33;3.43;;;0.90;;
71046;SDS011;58703;48.978;8.982;2023-09-18T09:10:59;4.72;;;1.08;;
71046;SDS011;58703;48.978;8.982;2023-09-18T09:13:25;4.10;;;1.08;;
71046;SDS011;58703;48.978;8.982;2023-09-18T09:15:55;3.00;;;0.55;;
71046;SDS011;58703;48.978;8.982;2023-09-18T09:18:22;1.83;;;0.60;;
71046;SDS011;58703;48.978;8.982;2023-09-18T09:20:59;22.10;;;1.13;;
71046;SDS011;58703;48.978;8.982;2023-09-18T09:23:26;3.00;;;0.40;;
71046;SDS011;58703;48.978;8.982;2023-09-18T09:25:53;3.28;;;0.73;;
71046;SDS011;58703;48.978;8.982;2023-09-18T09:28:29;4.63;;;0.63;;
71046;SDS011;58703;48.978;8.982;2023-09-18T09:31:02;1.00;;;0.65;;
71046;SDS011;58703;48.978;8.982;2023-09-18T09:33:28;3.37;;;0.50;;
71046;SDS011;58703;48.978;8.982;2023-09-18T09:35:55;3.15;;;0.68;;
71046;SDS011;58703;48.978;8.982;2023-09-18T09:38:27;4.05;;;0.50;;
71046;SDS011;58703;48.978;8.982;2023-09-18T09:40:57;1.65;;;0.60;;
71046;SDS011;58703;48.978;8.982;2023-09-18T09:43:25;2.20;;;0.60;;
71046;SDS011;58703;48.978;8.982;2023-09-18T09:45:56;2.27;;;0.57;;
71046;SDS011;58703;48.978;8.982;2023-09-18T09:48:24;1.55;;;0.50;;
71046;SDS011;58703;48.978;8.982;2023-09-18T09:50:50;1.48;;;0.60;;
71046;SDS011;58703;48.978;8.982;2023-09-18T09:53:17;3.40;;;0.68;;
71046;SDS011;58703;48.978;8.982;2023-09-18T09:55:43;1.55;;;0.50;;
71046;SDS011;58703;48.978;8.982;2023-09-18T09:58:10;3.03;;;0.30;;
71046;SDS011;58703;48.978;8.982;2023-09-18T10:00:41;6.07;;;0.80;;
71046;SDS011;58703;48.978;8.982;2023-09-18T10:03:14;2.83;;;0.50;;
71046;SDS011;58703;48.978;8.982;2023-09-18T10:05:41;2.67;;;0.40;;
71046;SDS011;58703;48.978;8.982;2023-09-18T10:08:12;1.55;;;0.82;;
71046;SDS011;58703;48.978;8.982;2023-09-18T10:10:51;4.60;;;0.87;;
71046;SDS011;58703;48.978;8.982;2023-09-18T10:13:19;3.47;;;0.65;;
71046;SDS011;58703;48.978;8.982;2023-09-18T10:15:52;6.82;;;0.93;;
71046;SDS011;58703;48.978;8.982;2023-09-18T10:18:52;1.33;;;0.65;;
71046;SDS011;58703;48.978;8.982;2023-09-18T10:21:36;1.90;;;0.40;;
71046;SDS011;58703;48.978;8.982;2023-09-18T10:26:54;5.03;;;0.80;;
71046;SDS011;58703;48.978;8.982;2023-09-18T10:29:22;2.67;;;0.70;;
71046;SDS011;58703;48.978;8.982;2023-09-18T10:31:51;5.22;;;1.25;;
71046;SDS011;58703;48.978;8.982;2023-09-18T10:34:19;2.60;;;0.55;;
71046;SDS011;58703;48.978;8.982;2023-09-18T10:36:49;2.43;;;0.73;;
71046;SDS011;58703;48.978;8.982;2023-09-18T10:39:15;3.10;;;0.65;;
71046;SDS011;58703;48.978;8.982;2023-09-18T10:41:51;3.70;;;0.80;;
71046;SDS011;58703;48.978;8.982;2023-09-18T10:44:18;3.92;;;0.60;;
71046;SDS011;58703;48.978;8.982;2023-09-18T10:46:44;2.10;;;1.20;;
71046;SDS011;58703;48.978;8.982;2023-09-18T10:49:15;1.53;;;0.50;;
71046;SDS011;58703;48.978;8.982;2023-09-18T10:51:43;2.40;;;0.68;;
71046;SDS011;58703;48.978;8.982;2023-09-18T10:54:09;2.85;;;0.88;;
71046;SDS011;58703;48.978;8.982;2023-09-18T10:56:35;3.17;;;0.80;;
71046;SDS011;58703;48.978;8.982;2023-09-18T10:59:02;4.80;;;0.90;;
71046;SDS011;58703;48.978;8.982;2023-09-18T11:01:30;4.28;;;0.80;;
71046;SDS011;58703;48.978;8.982;2023-09-18T11:04:06;4.03;;;0.80;;
71046;SDS011;58703;48.978;8.982;2023-09-18T11:09:22;2.35;;;0.70;;
71046;SDS011;58703;48.978;8.982;2023-09-18T11:12:02;3.80;;;0.80;;
71046;SDS011;58703;48.978;8.982;2023-09-18T11:14:42;3.92;;;0.63;;
71046;SDS011;58703;48.978;8.982;2023-09-18T11:20:23;2.47;;;0.77;;
71046;SDS011;58703;48.978;8.982;2023-09-18T11:23:09;4.30;;;0.60;;
71046;SDS011;58703;48.978;8.982;2023-09-18T11:25:41;1.65;;;0.60;;
71046;SDS011;58703;48.978;8.982;2023-09-18T11:28:08;6.63;;;0.98;;
71046;SDS011;58703;48.978;8.982;2023-09-18T11:30:38;4.65;;;1.13;;
71046;SDS011;58703;48.978;8.982;2023-09-18T11:33:14;2.03;;;0.67;;
71046;SDS011;58703;48.978;8.982;2023-09-18T11:35:49;1.33;;;0.70;;
71046;SDS011;58703;48.978;8.982;2023-09-18T11:38:16;1.60;;;0.77;;
71046;SDS011;58703;48.978;8.982;2023-09-18T11:40:42;5.00;;;1.08;;
71046;SDS011;58703;48.978;8.982;2023-09-18T11:43:28;2.67;;;0.50;;
71046;SDS011;58703;48.978;8.982;2023-09-18T11:46:00;2.60;;;0.70;;
71046;SDS011;58703;48.978;8.982;2023-09-18T11:48:29;2.47;;;0.43;;
71046;SDS011;58703;48.978;8.982;2023-09-18T11:50:59;4.82;;;0.80;;
71046;SDS011;58703;48.978;8.982;2023-09-18T11:53:28;3.10;;;0.60;;
71046;SDS011;58703;48.978;8.982;2023-09-18T11:55:54;1.73;;;0.50;;
71046;SDS011;58703;48.978;8.982;2023-09-18T11:58:21;4.43;;;1.03;;
71046;SDS011;58703;48.978;8.982;2023-09-18T12:00:49;3.65;;;0.73;;
71046;SDS011;58703;48.978;8.982;2023-09-18T12:03:22;3.28;;;0.80;;
71046;SDS011;58703;48.978;8.982;2023-09-18T12:05:55;3.22;;;0.85;;
71046;SDS011;58703;48.978;8.982;2023-09-18T12:08:23;4.53;;;0.43;;
71046;SDS011;58703;48.978;8.982;2023-09-18T12:10:52;1.20;;;0.30;;
71046;SDS011;58703;48.978;8.982;2023-09-18T12:13:20;1.70;;;0.80;;
71046;SDS011;58703;48.978;8.982;2023-09-18T12:15:47;0.98;;;0.40;;
71046;SDS011;58703;48.978;8.982;2023-09-18T12:18:15;1.33;;;0.68;;
71046;SDS011;58703;48.978;8.982;2023-09-18T12:20:47;4.13;;;0.73;;
71046;SDS011;58703;48.978;8.982;2023-09-18T12:23:14;1.90;;;0.50;;
71046;SDS011;58703;48.978;8.982;2023-09-18T12:25:40;3.78;;;0.70;;
71046;SDS011;58703;48.978;8.982;2023-09-18T12:28:07;4.20;;;0.70;;
71046;SDS011;58703;48.978;8.982;2023-09-18T12:30:33;2.45;;;0.77;;
71046;SDS011;58703;48.978;8.982;2023-09-18T12:32:59;3.23;;;0.50;;
71046;SDS011;58703;48.978;8.982;2023-09-18T12:35:29;2.55;;;0.70;;
71046;SDS011;58703;48.978;8.982;2023-09-18T12:37:56;2.17;;;0.60;;
71046;SDS011;58703;48.978;8.982;2023-09-18T12:40:26;1.65;;;0.63;;
71046;SDS011;58703;48.978;8.982;2023-09-18T12:42:54;1.90;;;0.43;;
71046;SDS011;58703;48.978;8.982;2023-09-18T12:45:22;1.13;;;0.40;;
71046;SDS011;58703;48.978;8.982;2023-09-18T12:47:49;2.60;;;0.88;;
71046;SDS011;58703;48.978;8.982;2023-09-18T12:50:16;2.67;;;0.75;;
71046;SDS011;58703;48.978;8.982;2023-09-18T12:52:41;2.23;;;0.77;;
71046;SDS011;58703;48.978;8.982;2023-09-18T12:55:07;2.53;;;0.82;;
71046;SDS011;58703;48.978;8.982;2023-09-18T12:57:33;2.22;;;0.65;;
71046;SDS011;58703;48.978;8.982;2023-09-18T12:59:59;1.20;;;0.70;;
71046;SDS011;58703;48.978;8.982;2023-09-18T13:02:28;2.13;;;0.50;;
71046;SDS011;58703;48.978;8.982;2023-09-18T13:04:54;2.33;;;0.53;;
71046;SDS011;58703;48.978;8.982;2023-09-18T13:07:21;1.30;;;0.60;;
71046;SDS011;58703;48.978;8.982;2023-09-18T13:10:00;2.50;;;0.90;;
71046;SDS011;58703;48.978;8.982;2023-09-18T13:12:48;2.72;;;0.60;;
71046;SDS011;58703;48.978;8.982;2023-09-18T13:17:55;2.23;;;0.73;;
71046;SDS011;58703;48.978;8.982;2023-09-18T13:20:22;1.48;;;0.60;;
71046;SDS011;58703;48.978;8.982;2023-09-18T13:22:53;1.17;;;0.60;;
71046;SDS011;58703;48.978;8.982;2023-09-18T13:25:21;1.17;;;0.60;;
71046;SDS011;58703;48.978;8.982;2023-09-18T13:27:52;1.83;;;0.60;;
71046;SDS011;58703;48.978;8.982;2023-09-18T13:30:19;1.10;;;0.40;;
71046;SDS011;58703;48.978;8.982;2023-09-18T13:32:46;4.10;;;0.75;;
71046;SDS011;58703;48.978;8.982;2023-09-18T13:35:16;1.73;;;0.40;;
71046;SDS011;58703;48.978;8.982;2023-09-18T13:37:43;2.67;;;0.40;;
71046;SDS011;58703;48.978;8.982;2023-09-18T13:40:10;2.28;;;0.60;;
71046;SDS011;58703;48.978;8.982;2023-09-18T13:42:39;1.63;;;0.60;;
71046;SDS011;58703;48.978;8.982;2023-09-18T13:45:05;1.40;;;0.70;;
71046;SDS011;58703;48.978;8.982;2023-09-18T13:47:31;2.25;;;0.63;;
71046;SDS011;58703;48.978;8.982;2023-09-18T13:49:59;1.73;;;0.75;;
71046;SDS011;58703;48.978;8.982;2023-09-18T13:52:32;1.23;;;0.32;;
71046;SDS011;58703;48.978;8.982;2023-09-18T13:54:59;2.10;;;0.20;;
71046;SDS011;58703;48.978;8.982;2023-09-18T13:57:25;2.55;;;0.50;;
71046;SDS011;58703;48.978;8.982;2023-09-18T13:59:51;2.57;;;0.40;;
71046;SDS011;58703;48.978;8.982;2023-09-18T14:02:17;1.27;;;0.70;;
71046;SDS011;58703;48.978;8.982;2023-09-18T14:04:44;2.17;;;0.60;;
71046;SDS011;58703;48.978;8.982;2023-09-18T14:07:10;2.60;;;0.47;;
71046;SDS011;58703;48.978;8.982;2023-09-18T14:09:37;0.70;;;0.50;;
71046;SDS011;58703;48.978;8.982;2023-09-18T14:12:03;1.60;;;0.50;;
71046;SDS011;58703;48.978;8.982;2023-09-18T14:14:33;2.70;;;0.53;;
71046;SDS011;58703;48.978;8.982;2023-09-18T14:16:59;1.88;;;0.57;;
71046;SDS011;58703;48.978;8.982;2023-09-18T14:19:24;1.70;;;0.67;;
71046;SDS011;58703;48.978;8.982;2023-09-18T14:21:51;1.50;;;0.80;;
71046;SDS011;58703;48.978;8.982;2023-09-18T14:24:17;1.10;;;0.50;;
71046;SDS011;58703;48.978;8.982;2023-09-18T14:26:47;1.55;;;0.65;;
71046;SDS011;58703;48.978;8.982;2023-09-18T14:29:14;3.35;;;1.10;;
71046;SDS011;58703;48.978;8.982;2023-09-18T14:31:40;2.50;;;0.80;;
71046;SDS011;58703;48.978;8.982;2023-09-18T14:34:05;5.35;;;1.05;;
71046;SDS011;58703;48.978;8.982;2023-09-18T14:36:34;2.73;;;0.70;;
71046;SDS011;58703;48.978;8.982;2023-09-18T14:39:01;2.13;;;1.10;;
71046;SDS011;58703;48.978;8.982;2023-09-18T14:41:28;3.78;;;0.90;;
71046;SDS011;58703;48.978;8.982;2023-09-18T14:43:53;1.47;;;0.73;;
71046;SDS011;58703;48.978;8.982;2023-09-18T14:46:20;2.78;;;0.63;;
71046;SDS011;58703;48.978;8.982;2023-09-18T14:48:46;1.40;;;0.68;;
71046;SDS011;58703;48.978;8.982;2023-09-18T14:51:12;2.37;;;0.87;;
71046;SDS011;58703;48.978;8.982;2023-09-18T14:53:37;0.93;;;0.60;;
71046;SDS011;58703;48.978;8.982;2023-09-18T14:56:03;1.77;;;0.90;;
71046;SDS011;58703;48.978;8.982;2023-09-18T14:58:29;2.75;;;0.85;;
71046;SDS011;58703;48.978;8.982;2023-09-18T15:00:56;1.15;;;0.90;;
71046;SDS011;58703;48.978;8.982;2023-09-18T15:03:25;1.75;;;0.80;;